createdAt,value
2023-05-03T00:02:10.495Z,6.50
2023-05-03T00:04:41.628Z,6.50
2023-05-03T00:07:10.098Z,6.40
2023-05-03T00:09:38.041Z,5.00
2023-05-03T00:12:19.105Z,6.40
2023-05-03T00:14:47.186Z,6.40
2023-05-03T00:17:16.671Z,6.30
2023-05-03T00:19:46.431Z,6.30
2023-05-03T00:22:14.562Z,6.30
2023-05-03T00:24:43.846Z,6.60
2023-05-03T00:27:11.833Z,6.20
2023-05-03T00:29:40.702Z,6.20
2023-05-03T00:32:10.642Z,6.20
2023-05-03T00:34:38.730Z,6.30
2023-05-03T00:37:09.365Z,6.10
2023-05-03T00:39:37.517Z,6.10
2023-05-03T00:42:05.796Z,6.10
2023-05-03T00:44:33.965Z,6.10
2023-05-03T00:47:02.379Z,6.20
2023-05-03T00:49:30.661Z,6.00
2023-05-03T00:51:59.601Z,6.10
2023-05-03T00:54:30.446Z,6.10
2023-05-03T00:56:58.929Z,6.10
2023-05-03T00:59:27.768Z,6.00
2023-05-03T01:01:56.333Z,5.90
2023-05-03T01:04:25.405Z,5.70
2023-05-03T01:07:04.973Z,5.60
2023-05-03T01:09:40.358Z,5.50
2023-05-03T01:12:21.714Z,5.40
2023-05-03T01:14:59.878Z,5.30
2023-05-03T01:17:32.979Z,5.20
2023-05-03T01:20:08.734Z,5.10
2023-05-03T01:22:43.856Z,5.10
2023-05-03T01:25:16.898Z,5.10
2023-05-03T01:27:45.354Z,5.20
2023-05-03T01:30:14.241Z,5.30
2023-05-03T01:33:00.982Z,5.40
2023-05-03T01:35:36.766Z,5.30
2023-05-03T01:38:10.006Z,5.30
2023-05-03T01:40:45.688Z,5.80
2023-05-03T01:43:17.065Z,5.10
2023-05-03T01:45:45.478Z,5.00
2023-05-03T01:48:15.726Z,5.20
2023-05-03T01:50:46.003Z,4.90
2023-05-03T01:53:14.144Z,5.00
2023-05-03T01:55:44.558Z,5.00
2023-05-03T01:58:12.662Z,5.00
2023-05-03T02:00:40.796Z,5.60
2023-05-03T02:03:10.304Z,5.30
2023-05-03T02:05:38.480Z,5.30
2023-05-03T02:08:06.402Z,5.40
2023-05-03T02:10:34.367Z,6.20
2023-05-03T02:13:04.718Z,6.50
2023-05-03T02:15:32.967Z,5.50
2023-05-03T02:18:02.540Z,6.00
2023-05-03T02:20:36.474Z,6.60
2023-05-03T02:23:16.852Z,5.50
2023-05-03T02:25:55.469Z,5.60
2023-05-03T02:28:27.618Z,6.60
2023-05-03T02:30:55.751Z,5.10
2023-05-03T02:33:25.108Z,5.50
2023-05-03T02:35:54.853Z,5.10
2023-05-03T02:38:23.174Z,6.20
2023-05-03T02:40:51.117Z,5.40
2023-05-03T02:43:19.061Z,6.20
2023-05-03T02:45:53.727Z,5.60
2023-05-03T02:48:22.372Z,6.60
2023-05-03T02:50:50.818Z,5.00
2023-05-03T02:53:18.802Z,4.90
2023-05-03T02:55:47.164Z,6.30
2023-05-03T02:58:15.759Z,6.00
2023-05-03T03:00:57.890Z,4.90
2023-05-03T03:03:27.757Z,4.20
2023-05-03T03:05:55.775Z,5.90
2023-05-03T03:08:26.677Z,4.70
2023-05-03T03:10:58.542Z,4.70
2023-05-03T03:13:27.718Z,4.60
2023-05-03T03:15:58.516Z,5.60
2023-05-03T03:18:28.665Z,4.70
2023-05-03T03:20:56.682Z,4.70
2023-05-03T03:23:28.668Z,6.00
2023-05-03T03:25:58.288Z,5.20
2023-05-03T03:28:27.116Z,6.20
2023-05-03T03:30:58.213Z,6.00
2023-05-03T03:33:27.750Z,5.10
2023-05-03T03:35:55.719Z,4.70
2023-05-03T03:38:23.838Z,5.20
2023-05-03T03:40:52.788Z,6.30
2023-05-03T03:43:21.220Z,4.70
2023-05-03T03:45:52.220Z,5.00
2023-05-03T03:48:21.267Z,4.60
2023-05-03T03:50:51.309Z,4.50
2023-05-03T03:53:19.333Z,4.40
2023-05-03T03:55:47.353Z,6.10
2023-05-03T03:58:15.532Z,5.00
2023-05-03T04:00:44.241Z,5.60
2023-05-03T04:03:12.774Z,5.50
2023-05-03T04:05:41.337Z,5.80
2023-05-03T04:08:10.940Z,5.60
2023-05-03T04:10:39.859Z,5.70
2023-05-03T04:13:08.903Z,3.90
2023-05-03T04:15:42.731Z,6.80
2023-05-03T04:18:11.611Z,6.70
2023-05-03T04:20:39.783Z,6.20
2023-05-03T04:23:07.760Z,5.30
2023-05-03T04:25:37.089Z,4.80
2023-05-03T04:31:11.574Z,4.60
2023-05-03T04:33:40.429Z,4.50
2023-05-03T04:36:16.126Z,5.20
2023-05-03T04:38:45.069Z,4.40
2023-05-03T04:41:16.123Z,6.30
2023-05-03T04:46:51.102Z,4.50
2023-05-03T04:49:19.396Z,4.60
2023-05-03T04:51:47.932Z,4.60
2023-05-03T04:54:16.667Z,6.90
2023-05-03T04:56:46.555Z,5.00
2023-05-03T04:59:14.656Z,6.30
2023-05-03T05:01:44.279Z,6.90
2023-05-03T05:04:12.409Z,4.20
2023-05-03T05:06:40.754Z,6.10
2023-05-03T05:09:21.145Z,6.80
2023-05-03T05:11:51.014Z,6.00
2023-05-03T05:14:19.213Z,7.30
2023-05-03T05:16:47.473Z,6.40
2023-05-03T05:19:16.259Z,5.90
2023-05-03T05:21:44.296Z,6.70
2023-05-03T05:24:12.342Z,6.10
2023-05-03T05:26:40.515Z,7.00
2023-05-03T05:29:09.865Z,6.40
2023-05-03T05:31:37.899Z,6.50
2023-05-03T05:34:05.988Z,7.00
2023-05-03T05:36:33.957Z,6.70
2023-05-03T05:39:03.702Z,6.90
2023-05-03T05:41:33.846Z,7.00
2023-05-03T05:44:01.833Z,7.30
2023-05-03T05:46:31.584Z,7.50
2023-05-03T05:48:59.668Z,7.80
2023-05-03T05:51:28.005Z,8.10
2023-05-03T05:53:56.155Z,8.40
2023-05-03T05:56:27.485Z,8.60
2023-05-03T05:58:56.023Z,8.90
2023-05-03T06:01:24.010Z,9.40
2023-05-03T06:03:53.502Z,9.80
2023-05-03T06:06:21.500Z,10.80
2023-05-03T06:08:51.504Z,10.50
2023-05-03T06:11:19.461Z,10.50
2023-05-03T06:13:47.589Z,10.90
2023-05-03T06:16:16.341Z,11.10
2023-05-03T06:18:44.898Z,11.70
2023-05-03T06:21:14.549Z,12.10
2023-05-03T06:23:42.698Z,13.60
2023-05-03T06:26:10.714Z,12.80
2023-05-03T06:28:38.826Z,13.00
2023-05-03T06:31:07.039Z,14.10
2023-05-03T06:33:35.117Z,13.20
2023-05-03T06:36:03.196Z,14.10
2023-05-03T06:38:34.027Z,14.30
2023-05-03T06:41:02.395Z,12.80
2023-05-03T06:43:30.912Z,13.90
2023-05-03T06:45:59.881Z,15.60
2023-05-03T06:48:29.271Z,14.90
2023-05-03T06:50:58.653Z,14.50
2023-05-03T06:53:27.251Z,15.90
2023-05-03T06:55:57.415Z,14.60
2023-05-03T06:58:25.708Z,16.00
2023-05-03T07:00:54.494Z,15.20
2023-05-03T07:03:22.777Z,15.50
2023-05-03T07:05:51.293Z,14.90
2023-05-03T07:08:19.443Z,14.50
2023-05-03T07:10:47.579Z,14.90
2023-05-03T07:13:17.112Z,15.00
2023-05-03T07:15:45.851Z,13.90
2023-05-03T07:18:15.152Z,15.00
2023-05-03T07:20:43.988Z,15.60
2023-05-03T07:23:12.540Z,14.10
2023-05-03T07:25:40.855Z,15.00
2023-05-03T07:28:09.560Z,15.80
2023-05-03T07:30:40.958Z,15.30
2023-05-03T07:33:09.438Z,15.30
2023-05-03T07:35:37.801Z,14.60
2023-05-03T07:38:06.275Z,16.50
2023-05-03T07:40:34.494Z,16.60
2023-05-03T07:43:03.133Z,14.60
2023-05-03T07:45:31.343Z,16.80
2023-05-03T07:48:00.884Z,14.40
2023-05-03T07:50:29.301Z,14.50
2023-05-03T07:52:57.565Z,14.30
2023-05-03T07:55:26.776Z,15.80
2023-05-03T07:57:58.889Z,15.20
2023-05-03T08:00:27.454Z,15.70
2023-05-03T08:02:55.851Z,14.60
2023-05-03T08:05:25.700Z,14.80
2023-05-03T08:07:53.944Z,14.90
2023-05-03T08:10:22.520Z,14.90
2023-05-03T08:12:51.016Z,16.70
2023-05-03T08:15:19.360Z,15.00
2023-05-03T08:17:47.557Z,14.80
2023-05-03T08:20:16.921Z,15.60
2023-05-03T08:22:46.531Z,14.60
2023-05-03T08:25:16.932Z,16.00
2023-05-03T08:27:45.102Z,14.30
2023-05-03T08:30:13.618Z,14.60
2023-05-03T08:32:41.878Z,14.90
2023-05-03T08:35:10.610Z,14.90
2023-05-03T08:37:41.969Z,14.50
2023-05-03T08:40:14.382Z,17.00
2023-05-03T08:42:43.953Z,14.70
2023-05-03T08:45:14.837Z,15.90
2023-05-03T08:47:45.112Z,14.40
2023-05-03T08:50:15.495Z,14.00
2023-05-03T08:52:44.748Z,14.20
2023-05-03T08:55:15.090Z,14.30
2023-05-03T08:57:44.595Z,14.40
2023-05-03T09:00:19.894Z,14.30
2023-05-03T09:02:53.735Z,14.60
2023-05-03T09:05:36.299Z,14.60
2023-05-03T09:08:16.080Z,14.60
2023-05-03T09:10:51.508Z,13.30
2023-05-03T09:13:26.468Z,13.20
2023-05-03T09:16:04.468Z,12.50
2023-05-03T09:18:35.494Z,13.00
2023-05-03T09:21:11.714Z,15.50
2023-05-03T09:23:44.827Z,14.30
2023-05-03T09:26:30.397Z,14.40
2023-05-03T09:29:01.556Z,15.40
2023-05-03T09:31:33.718Z,15.60
2023-05-03T09:34:02.448Z,15.80
2023-05-03T09:36:47.347Z,16.00
2023-05-03T09:39:18.496Z,16.40
2023-05-03T09:41:48.596Z,15.60
2023-05-03T09:44:17.688Z,15.30
2023-05-03T09:47:04.151Z,16.10
2023-05-03T09:49:33.064Z,17.60
2023-05-03T09:52:02.490Z,18.30
2023-05-03T09:54:31.992Z,18.60
2023-05-03T09:57:02.532Z,18.20
2023-05-03T09:59:30.658Z,18.00
2023-05-03T10:01:59.944Z,18.30
2023-05-03T10:04:29.348Z,19.60
2023-05-03T10:07:01.540Z,20.60
2023-05-03T10:09:35.212Z,20.90
2023-05-03T10:12:09.074Z,21.50
2023-05-03T10:14:37.696Z,22.00
2023-05-03T10:17:12.018Z,21.00
2023-05-03T10:19:47.387Z,20.10
2023-05-03T10:22:15.867Z,21.10
2023-05-03T10:25:08.829Z,20.10
2023-05-03T10:27:56.547Z,21.60
2023-05-03T10:30:31.579Z,20.00
2023-05-03T10:33:00.317Z,20.80
2023-05-03T10:35:31.420Z,22.20
2023-05-03T10:37:59.699Z,23.60
2023-05-03T10:40:55.090Z,22.50
2023-05-03T10:43:46.172Z,24.20
2023-05-03T10:46:45.115Z,22.20
2023-05-03T10:49:21.218Z,22.90
2023-05-03T10:51:49.880Z,24.00
2023-05-03T11:13:42.187Z,20.70
2023-05-03T11:16:10.476Z,21.90
2023-05-03T11:18:38.802Z,22.80
2023-05-03T11:21:07.007Z,24.30
2023-05-03T11:23:35.233Z,24.70
2023-05-03T11:26:07.387Z,24.20
2023-05-03T11:28:35.545Z,22.70
2023-05-03T11:31:06.737Z,24.00
2023-05-03T11:33:35.833Z,24.50
2023-05-03T11:36:04.803Z,24.00
2023-05-03T11:38:33.107Z,22.70
2023-05-03T11:41:02.518Z,23.30
2023-05-03T11:43:31.580Z,24.20
2023-05-03T11:46:01.273Z,24.20
2023-05-03T11:48:33.415Z,23.40
2023-05-03T11:51:07.981Z,22.40
2023-05-03T11:53:38.960Z,22.40
2023-05-03T11:56:09.819Z,22.70
2023-05-03T11:58:51.429Z,23.20
2023-05-03T12:01:21.181Z,22.60
2023-05-03T12:03:55.059Z,21.50
2023-05-03T12:06:24.403Z,21.60
2023-05-03T12:08:53.205Z,22.00
2023-05-03T12:11:25.577Z,22.10
2023-05-03T12:13:59.911Z,22.60
2023-05-03T12:16:29.040Z,23.00
2023-05-03T12:19:03.117Z,22.80
2023-05-03T12:21:53.510Z,21.60
2023-05-03T12:24:33.916Z,22.80
2023-05-03T12:27:03.501Z,22.80
2023-05-03T12:29:35.142Z,22.50
2023-05-03T12:32:04.849Z,21.70
2023-05-03T12:34:36.553Z,21.30
2023-05-03T12:37:06.533Z,21.10
2023-05-03T12:39:39.209Z,20.60
2023-05-03T12:42:09.163Z,20.80
2023-05-03T12:44:42.139Z,20.40
2023-05-03T12:47:11.116Z,19.90
2023-05-03T12:49:45.839Z,19.70
2023-05-03T12:54:48.925Z,19.50
2023-05-03T12:57:23.324Z,19.30
2023-05-03T12:59:54.152Z,19.80
2023-05-03T13:05:01.971Z,20.80
2023-05-03T13:07:32.714Z,21.40
2023-05-03T13:12:40.505Z,22.10
2023-05-03T13:15:10.195Z,22.60
2023-05-03T13:17:38.735Z,22.90
2023-05-03T13:20:12.260Z,23.10
2023-05-03T13:22:40.611Z,22.80
2023-05-03T13:25:09.876Z,22.90
2023-05-03T13:27:38.416Z,23.20
2023-05-03T13:30:08.779Z,22.80
2023-05-03T13:32:37.323Z,23.70
2023-05-03T13:37:54.090Z,21.20
2023-05-03T13:40:22.213Z,21.60
2023-05-03T13:42:50.809Z,21.50
2023-05-03T13:45:20.797Z,20.80
2023-05-03T13:50:21.543Z,21.90
2023-05-03T13:52:53.096Z,21.20
2023-05-03T13:55:27.373Z,21.20
2023-05-03T13:57:56.352Z,20.70
2023-05-03T14:00:36.311Z,20.20
2023-05-03T14:03:08.445Z,19.90
2023-05-03T14:05:37.019Z,19.50
2023-05-03T14:08:06.292Z,19.30
2023-05-03T14:10:42.405Z,19.20
2023-05-03T14:13:17.928Z,19.10
2023-05-03T14:15:47.114Z,18.20
2023-05-03T14:18:29.534Z,18.90
2023-05-03T14:20:59.565Z,17.30
2023-05-03T14:23:27.736Z,19.10
2023-05-03T14:25:57.498Z,19.60
2023-05-03T14:28:31.476Z,20.10
2023-05-03T14:31:04.255Z,18.50
2023-05-03T14:33:38.072Z,18.80
2023-05-03T14:36:08.762Z,20.60
2023-05-03T14:38:37.546Z,20.60
2023-05-03T14:41:09.246Z,20.50
2023-05-03T14:43:39.164Z,20.40
2023-05-03T14:46:08.774Z,20.80
2023-05-03T14:48:38.247Z,20.30
2023-05-03T14:51:07.408Z,19.70
2023-05-03T14:53:35.995Z,19.60
2023-05-03T14:56:05.329Z,19.40
2023-05-03T14:58:34.951Z,18.80
2023-05-03T15:01:03.552Z,18.80
2023-05-03T15:03:33.199Z,18.70
2023-05-03T15:06:01.707Z,18.70
2023-05-03T15:08:31.513Z,18.70
2023-05-03T15:11:00.195Z,18.60
2023-05-03T15:13:28.879Z,18.90
2023-05-03T15:15:58.768Z,19.10
2023-05-03T15:18:27.552Z,19.00
2023-05-03T15:20:55.725Z,18.70
2023-05-03T15:23:24.258Z,18.40
2023-05-03T15:25:54.103Z,18.20
2023-05-03T15:28:23.469Z,18.10
2023-05-03T15:30:52.077Z,17.90
2023-05-03T15:33:21.743Z,17.80
2023-05-03T15:35:49.879Z,17.70
2023-05-03T15:38:18.568Z,17.50
2023-05-03T15:41:02.287Z,17.40
2023-05-03T15:43:30.451Z,17.40
2023-05-03T15:45:59.422Z,17.40
2023-05-03T15:48:29.089Z,17.50
2023-05-03T15:50:57.352Z,17.60
2023-05-03T15:53:26.020Z,17.80
2023-05-03T15:55:58.234Z,17.90
2023-05-03T15:58:27.638Z,18.00
2023-05-03T16:00:56.998Z,18.10
2023-05-03T16:03:29.901Z,18.20
2023-05-03T16:06:00.131Z,18.10
2023-05-03T16:08:30.493Z,18.20
2023-05-03T16:10:59.391Z,18.10
2023-05-03T16:13:30.054Z,18.10
2023-05-03T16:16:02.065Z,17.90
2023-05-03T16:18:30.177Z,17.80
2023-05-03T16:21:02.263Z,17.90
2023-05-03T16:23:30.537Z,18.00
2023-05-03T16:25:58.760Z,17.90
2023-05-03T16:28:27.321Z,17.70
2023-05-03T16:30:55.745Z,17.70
2023-05-03T16:33:23.889Z,17.60
2023-05-03T16:35:55.370Z,17.50
2023-05-03T16:38:30.342Z,17.40
2023-05-03T16:40:59.820Z,17.20
2023-05-03T16:43:48.189Z,17.10
2023-05-03T16:46:31.021Z,16.90
2023-05-03T16:49:03.296Z,16.90
2023-05-03T16:51:32.276Z,16.80
2023-05-03T16:54:04.301Z,16.60
2023-05-03T16:56:33.117Z,16.50
2023-05-03T16:59:01.942Z,16.30
2023-05-03T17:01:30.692Z,16.30
2023-05-03T17:03:59.112Z,16.20
2023-05-03T17:06:27.666Z,16.10
2023-05-03T17:08:57.502Z,16.10
2023-05-03T17:11:28.768Z,16.10
2023-05-03T17:13:57.783Z,15.90
2023-05-03T17:16:26.449Z,15.90
2023-05-03T17:18:54.822Z,15.90
2023-05-03T17:21:24.356Z,15.80
2023-05-03T17:23:52.805Z,15.70
2023-05-03T17:26:21.499Z,15.60
2023-05-03T17:28:51.006Z,15.50
2023-05-03T17:31:19.353Z,15.50
2023-05-03T17:33:48.079Z,15.50
2023-05-03T17:36:17.295Z,15.40
2023-05-03T17:38:45.573Z,15.30
2023-05-03T17:41:14.023Z,15.10
2023-05-03T17:43:42.693Z,15.10
2023-05-03T17:46:13.698Z,15.00
2023-05-03T17:48:43.945Z,14.90
2023-05-03T17:51:13.606Z,14.80
2023-05-03T17:53:42.476Z,14.70
2023-05-03T17:56:14.628Z,14.60
2023-05-03T17:58:43.618Z,14.40
2023-05-03T18:01:13.685Z,14.30
2023-05-03T18:03:42.626Z,14.30
2023-05-03T18:06:12.292Z,14.20
2023-05-03T18:08:41.425Z,14.20
2023-05-03T18:11:10.373Z,13.90
2023-05-03T18:13:38.448Z,13.80
2023-05-03T18:16:08.313Z,13.60
2023-05-03T18:18:37.888Z,13.70
2023-05-03T18:21:07.145Z,13.60
2023-05-03T18:23:35.384Z,13.50
2023-05-03T18:26:03.789Z,13.50
2023-05-03T18:28:32.780Z,13.40
2023-05-03T18:31:00.787Z,13.30
2023-05-03T18:33:29.088Z,13.50
2023-05-03T18:35:59.132Z,13.20
2023-05-03T18:38:27.289Z,13.10
2023-05-03T18:40:55.922Z,13.00
2023-05-03T18:43:24.178Z,14.00
2023-05-03T18:45:52.861Z,12.90
2023-05-03T18:48:21.003Z,12.80
2023-05-03T18:50:49.396Z,12.70
2023-05-03T18:53:18.815Z,12.60
2023-05-03T18:55:46.933Z,12.70
2023-05-03T18:58:15.661Z,12.40
2023-05-03T19:00:43.771Z,12.30
2023-05-03T19:03:11.964Z,12.20
2023-05-03T19:05:40.069Z,12.20
2023-05-03T19:08:08.597Z,12.10
2023-05-03T19:10:38.044Z,12.00
2023-05-03T19:13:07.433Z,12.00
2023-05-03T19:15:35.650Z,11.90
2023-05-03T19:18:03.946Z,11.90
2023-05-03T19:20:32.355Z,11.80
2023-05-03T19:23:01.746Z,11.70
2023-05-03T19:25:30.035Z,11.80
2023-05-03T19:27:59.547Z,11.60
2023-05-03T19:30:28.139Z,11.60
2023-05-03T19:32:56.401Z,11.40
2023-05-03T19:35:24.718Z,11.30
2023-05-03T19:37:52.907Z,11.20
2023-05-03T19:40:21.715Z,11.20
2023-05-03T19:42:50.599Z,11.10
2023-05-03T19:45:20.285Z,10.80
2023-05-03T19:47:48.992Z,11.00
2023-05-03T19:50:17.514Z,12.00
2023-05-03T19:52:45.676Z,10.70
2023-05-03T19:55:14.364Z,10.80
2023-05-03T19:57:42.635Z,10.40
2023-05-03T20:00:15.611Z,10.30
2023-05-03T20:02:45.250Z,10.20
2023-05-03T20:05:13.464Z,10.10
2023-05-03T20:07:41.558Z,10.00
2023-05-03T20:10:10.485Z,9.90
2023-05-03T20:12:38.677Z,9.80
2023-05-03T20:15:08.156Z,9.80
2023-05-03T20:17:36.858Z,9.70
2023-05-03T20:20:11.176Z,10.00
2023-05-03T20:22:39.390Z,9.60
2023-05-03T20:25:08.670Z,9.60
2023-05-03T20:27:36.711Z,9.60
2023-05-03T20:30:06.160Z,9.60
2023-05-03T20:32:36.310Z,9.50
2023-05-03T20:35:04.957Z,9.50
2023-05-03T20:37:36.412Z,9.40
2023-05-03T20:40:07.798Z,9.30
2023-05-03T20:42:35.923Z,9.20
2023-05-03T20:45:04.152Z,9.20
2023-05-03T20:47:32.342Z,9.10
2023-05-03T20:50:00.569Z,9.00
2023-05-03T20:52:28.945Z,9.00
2023-05-03T20:54:58.447Z,8.90
2023-05-03T20:57:26.927Z,9.00
2023-05-03T20:59:54.996Z,8.70
2023-05-03T21:02:24.375Z,8.70
2023-05-03T21:04:52.487Z,8.60
2023-05-03T21:07:20.709Z,9.60
2023-05-03T21:09:48.785Z,9.30
2023-05-03T21:12:18.225Z,8.40
2023-05-03T21:14:46.275Z,8.40
2023-05-03T21:17:14.749Z,8.20
2023-05-03T21:19:42.985Z,8.10
2023-05-03T21:22:11.799Z,8.10
2023-05-03T21:24:39.896Z,8.00
2023-05-03T21:27:09.162Z,8.00
2023-05-03T21:29:38.643Z,7.90
2023-05-03T21:32:07.610Z,7.90
2023-05-03T21:34:35.762Z,7.80
2023-05-03T21:37:03.842Z,8.90
2023-05-03T21:39:32.847Z,7.80
2023-05-03T21:42:01.582Z,7.80
2023-05-03T21:44:30.574Z,7.70
2023-05-03T21:47:00.242Z,7.70
2023-05-03T21:49:28.708Z,7.60
2023-05-03T21:51:56.768Z,8.00
2023-05-03T21:54:24.891Z,7.50
2023-05-03T21:56:52.946Z,7.40
2023-05-03T21:59:21.242Z,7.40
2023-05-03T22:01:50.327Z,7.30
2023-05-03T22:04:19.882Z,7.30
2023-05-03T22:06:47.934Z,7.20
2023-05-03T22:09:15.990Z,7.60
2023-05-03T22:11:44.093Z,7.10
2023-05-03T22:14:12.171Z,7.10
2023-05-03T22:16:42.147Z,7.00
2023-05-03T22:19:11.961Z,7.00
2023-05-03T22:21:41.666Z,7.00
2023-05-03T22:24:09.967Z,6.90
2023-05-03T22:26:38.028Z,7.60
2023-05-03T22:29:06.266Z,6.90
2023-05-03T22:31:34.600Z,6.80
2023-05-03T22:34:03.224Z,7.80
2023-05-03T22:36:31.500Z,6.80
2023-05-03T22:39:05.331Z,6.80
2023-05-03T22:41:33.479Z,6.80
2023-05-03T22:44:01.639Z,6.80
2023-05-03T22:46:30.215Z,6.80
2023-05-03T22:48:58.317Z,6.70
2023-05-03T22:51:26.431Z,6.70
2023-05-03T22:53:54.511Z,6.60
2023-05-03T22:56:24.066Z,6.60
2023-05-03T22:58:52.158Z,7.40
2023-05-03T23:01:20.754Z,7.00
2023-05-03T23:03:48.926Z,6.50
2023-05-03T23:06:17.107Z,6.50
2023-05-03T23:08:45.224Z,6.50
2023-05-03T23:11:13.393Z,6.40
2023-05-03T23:13:42.836Z,6.40
2023-05-03T23:16:11.436Z,6.40
2023-05-03T23:18:39.606Z,6.30
2023-05-03T23:21:07.724Z,7.10
2023-05-03T23:23:36.260Z,6.20
2023-05-03T23:26:04.328Z,6.30
2023-05-03T23:28:33.165Z,6.30
2023-05-03T23:31:03.106Z,6.50
2023-05-03T23:33:32.963Z,6.30
2023-05-03T23:36:00.988Z,6.20
2023-05-03T23:38:30.492Z,6.10
2023-05-03T23:40:58.867Z,6.10
2023-05-03T23:43:27.124Z,6.00
2023-05-03T23:45:55.307Z,6.00
2023-05-03T23:48:24.739Z,6.00
2023-05-03T23:50:52.796Z,6.00
2023-05-03T23:53:20.860Z,5.90
2023-05-03T23:55:49.046Z,6.30
2023-05-03T23:58:17.113Z,5.80
